Latest Weather Observations for Pound Creek

IDV60801

Issued at 9:35 pm EST Friday 19 September 2014 (issued every 30 minutes, with the page automatically refreshed every 10 minutes)

About weather observations | Map of weather stations | Latest weather observations for VIC | Other Formats
Station Details ID: 085099 Name: POUND CREEK Lat: -38.63 Lon: 145.81 Height: 3.0 m
Data from the previous 72 hours. | See also: Recent months at Pound Creek
Date/Time
EST
Temp
°C
App
Temp
°C
Dew
Point
Rel
Hum
%
Delta-T
°C
Wind Press
QNH
hPa
Press
MSL
hPa
Rain
since 9 am
mm
Dir
 
Spd
km/h
Gust
km/h
Spd
kts
Gust
kts
19/09:30pm 11.2 6.6 8.2 82 1.5 SW 22 32 12 17 1024.8 1024.8 0.2
19/09:00pm 11.0 6.6 8.9 87 1.0 SW 22 32 12 17 1024.9 1024.9 0.0
19/08:30pm 11.9 6.1 7.8 76 2.0 SW 28 35 15 19 1024.7 1024.7 0.0
19/08:00pm 11.9 7.7 8.2 78 1.8 WSW 20 33 11 18 1024.6 1024.6 0.0
19/07:30pm 11.7 7.2 8.6 81 1.5 SW 22 30 12 16 1024.4 1024.4 0.0
19/07:00pm 11.0 8.5 8.1 82 1.4 W 11 17 6 9 1024.1 1024.1 0.0
19/06:30pm 11.6 7.0 8.1 79 1.7 WSW 22 32 12 17 1023.8 1023.8 0.0
19/06:00pm 11.9 7.8 8.7 81 1.6 WSW 20 28 11 15 1023.5 1023.5 0.0
19/05:30pm 12.5 8.2 8.0 74 2.2 WSW 20 33 11 18 1023.6 1023.6 0.0
19/05:00pm 13.1 8.0 7.8 70 2.6 WSW 24 33 13 18 1023.3 1023.3 0.0
19/04:30pm 13.4 7.7 8.5 72 2.4 WSW 28 41 15 22 1023.1 1023.1 0.0
19/04:00pm 13.0 7.7 8.5 74 2.2 WSW 26 33 14 18 1023.2 1023.2 0.0
19/03:30pm 13.6 8.6 8.2 70 2.7 WSW 24 33 13 18 1022.9 1022.9 0.0
19/03:00pm 13.4 9.5 9.3 76 2.1 WSW 20 30 11 16 1023.0 1023.0 0.0
19/02:30pm 13.6 9.7 9.3 75 2.2 W 20 32 11 17 1023.0 1023.0 0.0
19/02:00pm 14.1 10.0 8.5 69 2.8 W 20 26 11 14 1023.0 1023.0 0.0
19/01:30pm 13.5 8.4 9.2 75 2.2 WSW 26 35 14 19 1023.2 1023.2 0.0
19/01:00pm 14.3 9.1 8.7 69 2.8 SW 26 33 14 18 1023.4 1023.4 0.0
19/12:30pm 14.0 8.4 8.8 71 2.6 SW 28 35 15 19 1023.4 1023.4 0.0
19/12:00pm 14.5 10.0 9.9 74 2.4 WSW 24 35 13 19 1023.5 1023.5 0.0
19/11:30am 14.1 9.2 10.1 77 2.1 WSW 26 30 14 16 1023.5 1023.5 0.0
19/11:00am 14.1 9.5 9.7 75 2.3 SW 24 32 13 17 1023.6 1023.6 0.0
19/10:30am 13.2 8.6 9.8 80 1.7 WSW 24 32 13 17 1023.7 1023.7 0.0
19/10:00am 13.0 8.7 9.3 78 1.9 WSW 22 33 12 18 1023.9 1023.9 0.0
19/09:30am 12.2 7.5 9.4 83 1.4 WSW 24 35 13 19 1023.9 1023.9 0.0
19/09:00am 12.3 9.5 9.9 85 1.2 W 15 22 8 12 1024.0 1024.0 2.0
19/08:30am 12.3 8.6 9.3 82 1.5 W 19 26 10 14 1023.9 1023.9 2.0
19/08:00am 11.9 7.8 8.6 80 1.6 WSW 20 30 11 16 1023.6 1023.6 2.0
19/07:30am 10.3 7.1 8.6 89 0.8 SW 15 24 8 13 1023.5 1023.5 2.0
19/07:00am 11.5 7.9 8.2 80 1.6 W 17 22 9 12 1023.2 1023.2 1.4
19/06:30am 10.9 6.6 8.0 82 1.4 WSW 20 28 11 15 1023.0 1023.0 1.4
19/06:00am 8.5 5.9 6.3 86 1.0 NW 9 15 5 8 1022.7 1022.7 1.4
19/05:30am 10.8 6.4 7.5 80 1.6 WSW 20 28 11 15 1022.5 1022.5 1.4
19/05:00am 9.4 7.2 7.7 89 0.8 NW 9 13 5 7 1022.4 1022.4 1.4
19/04:30am 9.1 7.2 7.5 90 0.8 WNW 7 13 4 7 1022.4 1022.4 1.4
19/04:00am 8.5 6.4 6.8 89 0.8 NW 7 13 4 7 1022.4 1022.4 1.4
19/03:30am 8.5 5.7 7.1 91 0.7 NW 11 15 6 8 1022.4 1022.4 1.4
19/03:00am 8.6 6.5 6.7 88 0.9 NW 7 11 4 6 1022.3 1022.3 1.4
19/02:30am 9.5 6.3 6.9 84 1.2 WNW 13 17 7 9 1022.5 1022.5 1.4
19/02:00am 9.3 5.8 7.1 86 1.0 WNW 15 24 8 13 1022.7 1022.7 1.4
19/01:30am 8.9 6.3 6.2 83 1.2 NW 9 13 5 7 1023.0 1023.0 1.4
19/01:00am 9.6 6.7 6.7 82 1.3 WNW 11 19 6 10 1023.2 1023.2 1.4
19/12:30am 9.4 7.1 5.9 79 1.6 WNW 7 11 4 6 1023.2 1023.2 1.4
19/12:00am 10.0 7.4 6.0 76 1.8 WNW 9 13 5 7 1023.3 1023.3 1.4
 
Date/Time
EST
Temp
°C
App
Temp
°C
Dew
Point
Rel
Hum
%
Delta-T
°C
Wind Press
QNH
hPa
Press
MSL
hPa
Rain
since 9 am
mm
Dir
 
Spd
km/h
Gust
km/h
Spd
kts
Gust
kts
18/11:30pm 9.8 7.1 5.8 76 1.8 W 9 15 5 8 1023.5 1023.5 1.4
18/11:00pm 10.1 7.2 4.9 70 2.3 W 9 13 5 7 1023.9 1023.9 1.4
18/10:30pm 10.7 6.6 4.6 66 2.7 WSW 15 22 8 12 1023.8 1023.8 1.4
18/10:00pm 10.6 5.6 4.5 66 2.7 SW 20 30 11 16 1024.0 1024.0 1.4
18/09:30pm 11.2 6.6 6.3 72 2.3 SW 20 26 11 14 1023.8 1023.8 1.4
18/09:00pm 10.8 5.9 6.7 76 1.9 SW 22 32 12 17 1023.8 1023.8 1.4
18/08:30pm 11.4 7.9 7.3 76 2.0 WSW 15 30 8 16 1023.6 1023.6 1.4
18/08:00pm 11.3 6.9 6.4 72 2.3 SW 19 24 10 13 1023.4 1023.4 1.4
18/07:30pm 11.1 6.7 6.6 74 2.1 SW 19 24 10 13 1023.1 1023.1 1.4
18/07:00pm 10.6 6.4 5.6 71 2.3 WSW 17 22 9 12 1023.1 1023.1 1.4
18/06:30pm 11.2 6.8 6.5 73 2.2 SW 19 26 10 14 1023.0 1023.0 1.4
18/06:00pm 10.9 5.9 6.3 73 2.1 WSW 22 33 12 18 1022.7 1022.7 1.4
18/05:30pm 11.9 6.6 6.8 71 2.4 WSW 24 33 13 18 1022.4 1022.4 1.4
18/05:00pm 12.3 8.2 8.6 78 1.8 WSW 20 30 11 16 1022.1 1022.1 1.4
18/04:30pm 11.9 7.9 9.1 83 1.4 WSW 20 28 11 15 1021.9 1021.9 1.4
18/04:00pm 13.3 8.2 9.2 76 2.1 SW 26 35 14 19 1021.9 1021.9 1.2
18/03:30pm 13.2 7.5 8.3 72 2.4 WSW 28 39 15 21 1021.6 1021.6 1.2
18/03:00pm 12.7 6.9 8.0 73 2.3 WSW 28 39 15 21 1021.6 1021.6 1.2
18/02:30pm 12.0 6.2 8.1 77 1.9 SW 28 37 15 20 1021.6 1021.6 1.2
18/02:00pm 14.3 9.8 9.9 75 2.3 WSW 24 35 13 19 1021.4 1021.4 1.2
18/01:30pm 12.8 7.0 8.1 73 2.3 WSW 28 37 15 20 1021.4 1021.4 1.2
18/01:00pm 12.5 8.6 9.3 81 1.6 WSW 20 28 11 15 1021.5 1021.5 1.2
18/12:30pm 13.5 8.7 8.8 73 2.4 WSW 24 35 13 19 1021.3 1021.3 1.0
18/12:00pm 10.8 4.7 6.4 74 2.1 WSW 28 46 15 25 1021.6 1021.6 1.0
18/11:30am 12.8 7.0 7.9 72 2.4 SW 28 39 15 21 1021.6 1021.6 1.0
18/11:00am 12.6 7.6 7.9 73 2.3 SW 24 33 13 18 1021.5 1021.5 1.0
18/10:30am 11.7 7.5 8.4 80 1.6 WSW 20 28 11 15 1021.5 1021.5 1.0
18/10:00am 9.4 3.5 7.3 87 1.0 WSW 28 39 15 21 1021.7 1021.7 0.8
18/09:30am 9.2 2.4 7.0 86 1.0 SW 32 44 17 24 1021.7 1021.7 0.2
18/09:00am 10.6 6.1 6.9 78 1.7 W 20 35 11 19 1021.2 1021.2 7.6
18/08:30am 11.9 6.2 4.9 62 3.2 SW 24 37 13 20 1020.8 1020.8 7.6
18/08:00am 11.3 5.1 4.5 63 3.1 SW 26 33 14 18 1020.5 1020.5 7.6
18/07:30am 11.1 5.6 5.8 70 2.5 SW 24 33 13 18 1020.2 1020.2 7.6
18/07:00am 10.3 5.1 5.3 71 2.3 SW 22 30 12 16 1019.9 1019.9 7.6
18/06:30am 9.7 4.0 5.1 73 2.1 SW 24 32 13 17 1019.5 1019.5 7.6
18/06:00am 9.4 3.8 5.4 76 1.8 SSW 24 30 13 16 1019.0 1019.0 7.6
18/05:30am 9.4 2.9 6.3 81 1.4 WSW 30 39 16 21 1018.7 1018.7 7.6
18/05:00am 9.8 3.1 5.6 75 1.9 WSW 30 43 16 23 1018.5 1018.5 7.4
18/04:30am 10.1 4.1 5.5 73 2.1 WSW 26 37 14 20 1018.1 1018.1 7.0
18/04:00am 10.1 3.0 5.5 73 2.1 SW 32 44 17 24 1017.9 1017.9 7.0
18/03:30am 10.0 3.1 4.6 69 2.4 WSW 30 41 16 22 1017.4 1017.4 7.0
18/03:00am 9.6 2.2 4.8 72 2.1 WSW 33 44 18 24 1017.4 1017.4 7.0
18/02:30am 9.8 3.3 6.5 80 1.5 SW 30 39 16 21 1017.4 1017.4 7.0
18/02:00am 8.4 3.7 6.0 85 1.1 SW 20 28 11 15 1017.5 1017.5 7.0
18/01:38am 9.8 2.5 5.4 74 2.0 WSW 33 63 18 34 1017.6 1017.6 6.8
18/01:30am 9.9 2.7 4.9 71 2.2 WSW 32 44 17 24 1017.5 1017.5 6.8
18/01:00am 9.4 2.7 5.6 77 1.7 WSW 30 41 16 22 1017.6 1017.6 6.8
18/12:30am 9.0 3.2 6.3 83 1.2 W 26 39 14 21 1017.6 1017.6 6.8
18/12:00am 8.4 1.8 5.9 84 1.1 WSW 30 56 16 30 1017.6 1017.6 6.6
 
Date/Time
EST
Temp
°C
App
Temp
°C
Dew
Point
Rel
Hum
%
Delta-T
°C
Wind Press
QNH
hPa
Press
MSL
hPa
Rain
since 9 am
mm
Dir
 
Spd
km/h
Gust
km/h
Spd
kts
Gust
kts
17/11:49pm 9.3 2.8 6.6 83 1.3 WSW 30 59 16 32 1017.6 1017.6 6.2
17/11:30pm 9.0 1.9 5.6 79 1.5 WSW 32 48 17 26 1017.4 1017.4 6.0
17/11:06pm 10.0 2.9 5.6 74 2.0 WSW 32 52 17 28 1017.3 1017.3 6.0
17/11:00pm 9.8 3.9 6.0 77 1.7 WSW 26 44 14 24 1017.4 1017.4 6.0
17/10:34pm 10.1 3.8 5.9 75 1.9 WSW 28 54 15 29 1017.2 1017.2 6.0
17/10:30pm 9.7 4.2 5.7 76 1.8 WSW 24 43 13 23 1017.1 1017.1 6.0
17/10:00pm 10.0 3.4 4.4 68 2.5 WSW 28 39 15 21 1017.2 1017.2 6.0
17/09:30pm 10.5 2.9 3.1 60 3.2 WSW 32 44 17 24 1016.9 1016.9 6.0
17/09:00pm 10.6 3.7 4.5 66 2.7 WSW 30 44 16 24 1016.7 1016.7 6.0
17/08:30pm 10.2 2.2 3.9 65 2.8 WSW 35 46 19 25 1016.5 1016.5 6.0
17/08:00pm 10.3 3.4 4.5 67 2.6 SW 30 44 16 24 1016.3 1016.3 6.0
17/07:52pm 10.4 3.1 4.5 67 2.6 WSW 32 50 17 27 1016.3 1016.3 6.0
17/07:30pm 10.2 2.9 4.4 67 2.6 WSW 32 44 17 24 1016.1 1016.1 6.0
17/07:00pm 10.4 2.3 3.2 61 3.1 WSW 35 52 19 28 1015.7 1015.7 6.0
17/06:30pm 10.5 2.5 4.0 64 2.9 WSW 35 48 19 26 1015.3 1015.3 6.0
17/06:16pm 10.3 3.6 5.5 72 2.2 WSW 30 48 16 26 1015.3 1015.3 6.0
17/06:00pm 10.2 1.9 4.4 67 2.6 WSW 37 54 20 29 1015.2 1015.2 6.0
17/05:30pm 10.7 3.2 4.2 64 2.9 WSW 33 52 18 28 1014.7 1014.7 6.0
17/05:04pm 10.2 1.0 3.7 64 2.8 W 41 61 22 33 1014.4 1014.4 6.0
17/05:00pm 9.9 0.3 3.6 65 2.7 WSW 43 61 23 33 1014.3 1014.3 6.0
17/04:46pm 11.5 3.0 5.2 65 2.9 WSW 39 59 21 32 1014.0 1014.0 6.0
17/04:30pm 11.1 2.2 5.2 67 2.7 WSW 41 57 22 31 1013.8 1013.8 6.0
17/04:00pm 11.0 0.9 3.5 60 3.3 WSW 46 63 25 34 1013.3 1013.3 6.0
17/03:30pm 11.8 2.8 6.3 69 2.6 WSW 43 59 23 32 1013.1 1013.1 6.0
17/03:00pm 9.7 -1.2 5.7 76 1.8 WSW 52 70 28 38 1013.1 1013.1 6.0
17/02:30pm 11.6 3.0 6.7 72 2.3 WSW 41 61 22 33 1012.1 1012.1 6.0
17/02:00pm 11.1 2.0 6.8 75 2.0 WSW 44 61 24 33 1012.3 1012.3 6.0
17/01:42pm 11.1 1.7 7.2 77 1.9 WSW 46 78 25 42 1012.1 1012.1 6.0
17/01:32pm 11.3 3.3 7.6 78 1.8 WSW 39 59 21 32 1011.8 1011.8 6.0
17/01:30pm 11.3 3.7 7.4 77 1.9 W 37 54 20 29 1011.8 1011.8 6.0
17/01:02pm 11.6 2.4 6.5 71 2.4 WSW 44 67 24 36 1011.8 1011.8 6.0
17/01:00pm 12.0 3.1 6.9 71 2.4 WSW 43 57 23 31 1011.8 1011.8 6.0
17/12:41pm 13.6 5.5 7.2 65 3.1 W 39 63 21 34 1011.5 1011.5 6.0
17/12:30pm 12.8 3.8 6.4 65 3.0 WSW 43 56 23 30 1011.5 1011.5 6.0
17/12:00pm 12.7 6.2 8.0 73 2.3 WSW 32 46 17 25 1011.6 1011.6 6.0
17/11:31am 10.6 4.2 8.5 87 1.0 WSW 32 52 17 28 1011.8 1011.8 5.8
17/11:30am 10.5 3.9 8.6 88 0.9 WSW 33 52 18 28 1011.7 1011.7 5.8
17/11:14am 11.8 6.2 8.6 81 1.6 W 28 46 15 25 1011.5 1011.5 5.6
17/11:00am 11.4 5.8 10.0 91 0.7 W 30 43 16 23 1011.7 1011.7 5.6
17/10:44am 10.2 4.2 8.5 89 0.8 W 30 50 16 27 1011.5 1011.5 5.2
17/10:30am 11.7 7.8 9.6 87 1.1 W 20 30 11 16 1011.4 1011.4 4.2
17/10:00am 9.8 4.4 8.2 90 0.8 WNW 26 39 14 21 1011.6 1011.6 4.2
17/09:30am 9.6 5.0 8.2 91 0.7 WNW 22 35 12 19 1011.7 1011.7 3.4
17/09:00am 8.0 3.4 5.6 85 1.1 W 19 39 10 21 1011.9 1011.9 4.4
17/08:30am 11.7 8.5 9.9 89 0.9 WNW 17 32 9 17 1011.4 1011.4 2.2
17/08:00am 10.8 8.2 9.4 91 0.7 NW 13 24 7 13 1011.5 1011.5 2.2
17/07:30am 9.4 6.5 8.3 93 0.5 NW 13 19 7 10 1011.4 1011.4 2.0
17/07:00am 9.5 7.0 8.4 93 0.5 WNW 11 20 6 11 1011.3 1011.3 2.0
17/06:30am 9.1 4.3 7.5 90 0.8 W 22 39 12 21 1011.5 1011.5 1.6
17/06:00am 9.7 6.9 8.6 93 0.5 WNW 13 20 7 11 1011.2 1011.2 1.2
17/05:30am 9.5 7.5 8.7 95 0.4 NW 9 20 5 11 1011.2 1011.2 1.2
17/05:00am 9.1 7.1 8.5 96 0.3 NW 9 13 5 7 1011.0 1011.0 1.2
17/04:30am 8.8 6.7 8.2 96 0.3 NW 9 17 5 9 1010.9 1010.9 1.2
17/04:00am 8.6 6.8 8.0 96 0.3 NW 7 15 4 8 1011.0 1011.0 1.2
17/03:30am 9.3 7.9 8.7 96 0.3 WNW 6 9 3 5 1011.1 1011.1 1.2
17/03:00am 8.7 7.1 8.1 96 0.3 WNW 6 9 3 5 1011.4 1011.4 1.2
17/02:30am 9.1 7.1 8.5 96 0.3 NNW 9 13 5 7 1011.5 1011.5 1.2
17/02:00am 9.5 7.9 8.9 96 0.3 NNW 7 13 4 7 1011.6 1011.6 1.2
17/01:30am 9.3 7.7 8.8 97 0.2 NW 7 13 4 7 1011.8 1011.8 1.0
17/01:00am 8.6 6.5 8.2 97 0.2 NNW 9 13 5 7 1012.0 1012.0 0.8
17/12:30am 8.2 5.9 7.6 96 0.3 NNW 9 11 5 6 1012.0 1012.0 0.8
17/12:00am 8.9 7.3 8.1 95 0.4 NW 6 9 3 5 1012.1 1012.1 0.8
 
Date/Time
EST
Temp
°C
App
Temp
°C
Dew
Point
Rel
Hum
%
Delta-T
°C
Wind Press
QNH
hPa
Press
MSL
hPa
Rain
since 9 am
mm
Dir
 
Spd
km/h
Gust
km/h
Spd
kts
Gust
kts
16/11:30pm 9.6 8.6 8.7 94 0.4 WNW 4 7 2 4 1012.1 1012.1 0.8
16/11:00pm 10.3 8.4 9.1 92 0.6 WNW 9 15 5 8 1012.4 1012.4 0.8
16/10:30pm 11.9 9.9 10.0 88 1.0 WSW 11 19 6 10 1012.3 1012.3 0.4
16/10:00pm 12.0 9.2 10.1 88 1.0 SW 15 20 8 11 1012.2 1012.2 0.4

Other Formats:

Comma delimited format used in spreadsheet applications
http://www.bom.gov.au/fwo/IDV60801/IDV60801.94886.axf

JavaScript Object Notation format (JSON) in row-major order
http://www.bom.gov.au/fwo/IDV60801/IDV60801.94886.json